Time;durP1;ratioP1;P1;durP2;ratioP2;P2;SDS_P1;SDS_P2;PMS_P1;PMS_P2;Temp;Humidity;BMP_temperature;BMP_pressure;BME280_temperature;BME280_humidity;BME280_pressure;Samples;Min_cycle;Max_cycle;Signal;HPM_P1;HPM_P2
2023/05/05 00:01:06;;;;;;;4.85;4.05;;;6.70;99.90;;;;;;4977214;28;20041;-72
2023/05/05 00:03:34;;;;;;;5.70;4.10;;;6.70;99.90;;;;;;4993850;28;20030;-72
2023/05/05 00:06:00;;;;;;;6.30;3.50;;;6.70;99.90;;;;;;4994991;28;20026;-72
2023/05/05 00:08:26;;;;;;;8.60;3.95;;;6.60;99.90;;;;;;4994909;28;20041;-72
2023/05/05 00:10:52;;;;;;;6.88;3.95;;;6.60;99.90;;;;;;4994886;28;20022;-72
2023/05/05 00:13:19;;;;;;;6.72;4.03;;;6.50;99.90;;;;;;4977959;28;20038;-73
2023/05/05 00:15:47;;;;;;;7.65;4.40;;;6.50;99.90;;;;;;4993562;28;20037;-72
2023/05/05 00:18:15;;;;;;;9.02;4.57;;;6.50;99.90;;;;;;4994773;28;20025;-73
2023/05/05 00:20:42;;;;;;;5.57;3.57;;;6.40;99.90;;;;;;4994856;28;20030;-72
2023/05/05 00:23:08;;;;;;;6.47;3.95;;;6.30;99.90;;;;;;4994442;28;20453;-73
2023/05/05 00:25:33;;;;;;;8.65;4.07;;;6.20;99.90;;;;;;4994703;28;20022;-72
2023/05/05 00:27:59;;;;;;;6.53;4.47;;;6.20;99.90;;;;;;4994569;28;20422;-72
2023/05/05 00:30:26;;;;;;;11.02;4.00;;;6.20;99.90;;;;;;4994640;28;20076;-73
2023/05/05 00:32:53;;;;;;;5.10;4.32;;;6.10;99.90;;;;;;4994340;28;20034;-72
2023/05/05 00:35:19;;;;;;;6.68;4.50;;;6.10;99.90;;;;;;4994312;28;20474;-72
2023/05/05 00:37:45;;;;;;;4.68;4.18;;;6.00;99.90;;;;;;4994744;28;20098;-72
2023/05/05 00:40:11;;;;;;;7.18;4.13;;;6.00;99.90;;;;;;4993006;28;20410;-72
2023/05/05 00:42:41;;;;;;;10.63;4.93;;;6.00;99.90;;;;;;4994185;28;20088;-73
2023/05/05 00:45:08;;;;;;;5.30;3.92;;;5.90;99.90;;;;;;4994211;28;20045;-72
2023/05/05 00:47:34;;;;;;;7.88;4.68;;;5.90;99.90;;;;;;4977347;28;20028;-72
2023/05/05 00:50:01;;;;;;;6.30;4.53;;;5.90;99.90;;;;;;4994283;28;20375;-72
2023/05/05 00:52:27;;;;;;;6.20;4.30;;;5.90;99.90;;;;;;4994361;28;20027;-72
2023/05/05 00:54:53;;;;;;;8.40;4.38;;;5.80;99.90;;;;;;4976885;28;20049;-72
2023/05/05 00:57:19;;;;;;;7.60;4.10;;;5.90;99.90;;;;;;4994022;28;20033;-73
2023/05/05 00:59:47;;;;;;;6.57;4.50;;;5.80;99.90;;;;;;4976933;28;20038;-73
2023/05/05 01:02:12;;;;;;;5.38;4.15;;;5.80;99.90;;;;;;4993051;28;20034;-73
2023/05/05 01:04:38;;;;;;;6.60;4.63;;;5.80;99.90;;;;;;4994106;28;20026;-73
2023/05/05 01:07:42;;;;;;;6.95;4.57;;;5.80;99.90;;;;;;4994117;28;20030;-74
2023/05/05 01:10:19;;;;;;;5.68;4.07;;;5.70;99.90;;;;;;4933985;29;20040;-72
2023/05/05 01:13:22;;;;;;;5.05;4.10;;;5.60;99.90;;;;;;4987688;28;20085;-72
2023/05/05 01:16:00;;;;;;;6.05;4.43;;;5.60;99.90;;;;;;4996815;28;20026;-72
2023/05/05 01:18:46;;;;;;;8.77;4.68;;;5.60;99.90;;;;;;4980898;28;20463;-73
2023/05/05 01:21:14;;;;;;;5.43;4.25;;;5.60;99.90;;;;;;4998155;28;20030;-72
2023/05/05 01:23:49;;;;;;;7.45;4.10;;;5.70;99.90;;;;;;4980510;28;20019;-72
2023/05/05 01:26:36;;;;;;;5.90;4.00;;;5.50;99.90;;;;;;4996731;28;20026;-72
2023/05/05 01:29:23;;;;;;;5.27;4.27;;;5.50;99.90;;;;;;4998103;28;20073;-72
2023/05/05 01:31:51;;;;;;;8.00;3.78;;;5.50;99.90;;;;;;4997569;28;20037;-73
2023/05/05 01:34:27;;;;;;;6.53;4.38;;;5.40;99.90;;;;;;4997496;28;20030;-72
2023/05/05 01:37:06;;;;;;;7.00;3.97;;;5.40;99.90;;;;;;4996574;28;20033;-73
2023/05/05 01:39:35;;;;;;;7.32;4.15;;;5.40;99.90;;;;;;4980723;28;20092;-73
2023/05/05 01:42:04;;;;;;;;;;;5.30;99.90;;;;;;4998070;28;20035;-72
2023/05/05 01:44:31;;;;;;;6.38;4.32;;;5.30;99.90;;;;;;4980141;28;19906;-73
2023/05/05 01:46:59;;;;;;;5.93;4.68;;;5.30;99.90;;;;;;4980072;28;20078;-73
2023/05/05 01:49:26;;;;;;;4.95;4.15;;;5.20;99.90;;;;;;4996555;28;20061;-73
2023/05/05 01:51:54;;;;;;;7.55;4.10;;;5.20;99.90;;;;;;4997459;28;20061;-72
2023/05/05 01:54:23;;;;;;;5.47;4.47;;;5.20;99.90;;;;;;4979967;28;20053;-72
2023/05/05 01:56:52;;;;;;;5.25;4.57;;;5.20;99.90;;;;;;4996192;28;20023;-72
2023/05/05 01:59:19;;;;;;;6.80;4.60;;;5.70;99.90;;;;;;4997403;28;20540;-72
2023/05/05 02:01:48;;;;;;;5.80;4.25;;;5.40;99.90;;;;;;4997300;28;20101;-72
2023/05/05 02:04:16;;;;;;;5.50;4.27;;;5.10;99.90;;;;;;4997811;28;20026;-72
2023/05/05 02:06:44;;;;;;;8.65;4.30;;;5.10;99.90;;;;;;4997271;28;20265;-72
2023/05/05 02:09:12;;;;;;;6.70;4.67;;;5.10;99.90;;;;;;4980106;28;20045;-72
2023/05/05 02:11:39;;;;;;;9.48;4.25;;;5.10;99.90;;;;;;4979690;28;20081;-72
2023/05/05 02:14:06;;;;;;;6.05;4.82;;;5.10;99.90;;;;;;4995829;28;20030;-73
2023/05/05 02:16:34;;;;;;;6.43;4.97;;;5.00;99.90;;;;;;4997053;28;20109;-73
2023/05/05 02:19:03;;;;;;;7.72;4.45;;;5.00;99.90;;;;;;4979749;28;20142;-72
2023/05/05 02:21:30;;;;;;;8.48;4.72;;;5.00;99.90;;;;;;4996662;28;20488;-72
2023/05/05 02:23:57;;;;;;;8.20;4.50;;;4.90;99.90;;;;;;4996522;28;20209;-72
2023/05/05 02:26:23;;;;;;;7.05;4.38;;;4.90;99.90;;;;;;4997518;28;20027;-72
2023/05/05 02:28:55;;;;;;;9.75;4.80;;;4.90;99.90;;;;;;4997236;28;20039;-73
2023/05/05 02:31:22;;;;;;;7.75;5.43;;;4.80;99.90;;;;;;4997131;28;20133;-72
2023/05/05 02:33:49;;;;;;;6.35;4.63;;;4.80;99.90;;;;;;4996727;28;20072;-73
2023/05/05 02:36:17;;;;;;;10.00;5.13;;;4.80;99.90;;;;;;4996964;28;20038;-73
2023/05/05 02:38:45;;;;;;;8.38;4.63;;;4.80;99.90;;;;;;4995793;28;20056;-72
2023/05/05 02:41:15;;;;;;;7.07;4.18;;;5.00;99.90;;;;;;4996820;28;20483;-72
2023/05/05 02:43:42;;;;;;;6.80;4.32;;;4.70;99.90;;;;;;4995443;28;20161;-73
2023/05/05 02:46:08;;;;;;;7.63;4.80;;;4.70;99.90;;;;;;4979228;28;20057;-72
2023/05/05 02:48:34;;;;;;;7.32;4.22;;;4.70;99.90;;;;;;4995185;28;20038;-72
2023/05/05 02:51:00;;;;;;;6.00;4.82;;;4.70;99.90;;;;;;4996415;28;20090;-72
2023/05/05 02:53:26;;;;;;;8.93;5.03;;;5.00;99.90;;;;;;4978837;28;20103;-72
2023/05/05 02:56:04;;;;;;;8.00;5.00;;;4.70;99.90;;;;;;4996265;28;20471;-73
2023/05/05 02:58:45;;;;;;;8.68;5.00;;;4.70;99.90;;;;;;4996336;28;20040;-72
2023/05/05 03:01:16;;;;;;;6.97;4.53;;;4.60;99.90;;;;;;4978806;28;20054;-72
2023/05/05 03:03:56;;;;;;;7.47;5.28;;;4.60;99.90;;;;;;4978934;28;20117;-73
2023/05/05 03:06:26;;;;;;;7.68;4.78;;;4.50;99.90;;;;;;4996619;28;20542;-73
2023/05/05 03:08:51;;;;;;;9.43;4.85;;;4.50;99.90;;;;;;4995452;28;20031;-73
2023/05/05 03:11:30;;;;;;;11.32;5.10;;;4.50;99.90;;;;;;4996706;28;20108;-73
2023/05/05 03:14:10;;;;;;;11.35;5.30;;;4.50;99.90;;;;;;4995672;28;20032;-74
2023/05/05 03:16:38;;;;;;;12.45;5.97;;;4.50;99.90;;;;;;4997101;28;20080;-74
2023/05/05 03:19:05;;;;;;;10.57;5.68;;;4.50;99.90;;;;;;4979105;28;20034;-73
2023/05/05 03:21:32;;;;;;;7.88;5.50;;;4.50;99.90;;;;;;4996148;28;20109;-73
2023/05/05 03:23:58;;;;;;;15.52;5.50;;;4.50;99.90;;;;;;4995895;28;20022;-72
2023/05/05 03:26:23;;;;;;;21.30;9.48;;;4.40;99.90;;;;;;4995794;28;20521;-73
2023/05/05 03:28:50;;;;;;;20.27;9.88;;;4.40;99.90;;;;;;4978196;28;20038;-72
2023/05/05 03:31:17;;;;;;;14.60;7.38;;;4.40;99.90;;;;;;4995631;28;20088;-72
2023/05/05 03:33:42;;;;;;;16.23;7.40;;;4.40;99.90;;;;;;4995366;28;20038;-72
2023/05/05 03:36:09;;;;;;;16.00;7.88;;;4.40;99.90;;;;;;4993599;28;20022;-72
2023/05/05 03:38:35;;;;;;;14.80;7.47;;;4.40;99.90;;;;;;4995549;28;20070;-72
2023/05/05 03:41:02;;;;;;;16.00;7.43;;;4.40;99.90;;;;;;4996151;28;20030;-73
2023/05/05 03:43:28;;;;;;;18.13;7.32;;;4.40;99.90;;;;;;4995062;28;20026;-73
2023/05/05 03:45:53;;;;;;;16.85;7.43;;;4.40;99.90;;;;;;4995990;28;20108;-72
2023/05/05 03:48:19;;;;;;;19.27;7.72;;;4.40;99.90;;;;;;4995168;28;20492;-72
2023/05/05 03:50:45;;;;;;;15.20;7.35;;;4.40;99.90;;;;;;4996094;28;20061;-73
2023/05/05 03:53:10;;;;;;;14.45;7.65;;;4.40;99.90;;;;;;4995099;28;20061;-73
2023/05/05 03:55:36;;;;;;;13.30;7.25;;;4.40;99.90;;;;;;4995256;28;20061;-72
2023/05/05 03:58:02;;;;;;;12.43;6.95;;;5.10;99.90;;;;;;4995187;28;20520;-72
2023/05/05 04:00:27;;;;;;;16.95;7.97;;;4.40;99.90;;;;;;4993883;28;20643;-72
2023/05/05 04:02:53;;;;;;;14.40;7.15;;;5.90;99.90;;;;;;4995313;28;20038;-73
2023/05/05 04:05:21;;;;;;;14.25;6.82;;;4.50;99.90;;;;;;4995029;28;20026;-72
2023/05/05 04:07:46;;;;;;;19.15;7.45;;;4.60;99.90;;;;;;4995004;28;20029;-72
2023/05/05 04:10:12;;;;;;;15.52;7.40;;;4.60;99.90;;;;;;4994655;28;20034;-74
2023/05/05 04:12:38;;;;;;;15.05;7.18;;;4.60;99.90;;;;;;4995113;28;20455;-78
2023/05/05 04:15:04;;;;;;;14.60;6.35;;;4.70;99.90;;;;;;4994269;28;20078;-72
2023/05/05 04:17:30;;;;;;;12.48;6.53;;;4.80;99.90;;;;;;4994550;28;20033;-74
2023/05/05 04:19:55;;;;;;;9.98;6.53;;;4.80;99.90;;;;;;4994769;28;20034;-74
2023/05/05 04:22:21;;;;;;;13.93;6.80;;;4.80;99.90;;;;;;4994944;28;20080;-74
2023/05/05 04:24:47;;;;;;;10.88;5.90;;;5.60;99.90;;;;;;4994720;28;20378;-74
2023/05/05 04:27:12;;;;;;;9.60;5.63;;;5.00;99.90;;;;;;4994219;28;20474;-74
2023/05/05 04:29:38;;;;;;;7.40;5.20;;;5.10;99.90;;;;;;4993695;28;20037;-76
2023/05/05 04:32:05;;;;;;;9.38;5.60;;;5.20;99.90;;;;;;4995030;28;20431;-74
2023/05/05 04:34:31;;;;;;;10.20;5.95;;;5.20;99.90;;;;;;4994599;28;20033;-74
2023/05/05 04:36:56;;;;;;;8.32;5.40;;;5.20;99.90;;;;;;4994528;28;20110;-78
2023/05/05 04:39:22;;;;;;;9.80;5.18;;;5.30;99.90;;;;;;4977350;28;20493;-75
2023/05/05 04:41:48;;;;;;;7.22;5.05;;;5.40;99.90;;;;;;4994177;28;20375;-74
2023/05/05 04:44:13;;;;;;;8.40;4.97;;;5.50;99.90;;;;;;4977072;28;20080;-75
2023/05/05 04:46:39;;;;;;;8.77;5.53;;;5.50;99.90;;;;;;4976776;28;20560;-76
2023/05/05 04:49:05;;;;;;;6.97;5.32;;;5.60;99.90;;;;;;4994361;28;20434;-75
2023/05/05 04:51:31;;;;;;;7.63;4.88;;;5.70;99.90;;;;;;4976949;28;20377;-75
2023/05/05 04:53:57;;;;;;;7.63;4.90;;;5.80;99.90;;;;;;4993120;28;20038;-77
2023/05/05 04:56:22;;;;;;;8.45;4.70;;;5.80;99.90;;;;;;4994326;28;20026;-76
2023/05/05 04:58:49;;;;;;;8.65;4.43;;;5.90;99.90;;;;;;4976863;28;20437;-75
2023/05/05 05:01:15;;;;;;;8.90;4.88;;;6.00;99.90;;;;;;4994353;28;20050;-74
2023/05/05 05:03:40;;;;;;;7.53;5.30;;;6.10;99.90;;;;;;4977212;28;20026;-75
2023/05/05 05:06:06;;;;;;;4.72;4.22;;;6.20;99.90;;;;;;4993064;28;20034;-72
2023/05/05 05:08:32;;;;;;;10.85;4.75;;;6.30;99.90;;;;;;4994305;28;20069;-74
2023/05/05 05:10:58;;;;;;;17.38;4.97;;;6.40;99.90;;;;;;4994675;28;20035;-74
2023/05/05 05:13:24;;;;;;;5.53;4.10;;;6.50;99.90;;;;;;4976803;28;20078;-73
2023/05/05 05:15:50;;;;;;;6.53;4.20;;;6.70;99.90;;;;;;4993377;28;20026;-73
2023/05/05 05:18:16;;;;;;;5.78;4.20;;;6.70;99.90;;;;;;4994434;28;20027;-74
2023/05/05 05:20:41;;;;;;;6.75;4.45;;;6.90;99.90;;;;;;4994435;28;20371;-74
2023/05/05 05:23:07;;;;;;;6.38;4.30;;;7.00;99.90;;;;;;4994157;28;20386;-74
2023/05/05 05:25:32;;;;;;;6.00;4.20;;;7.10;99.90;;;;;;4992926;28;20026;-74
2023/05/05 05:27:58;;;;;;;5.32;3.92;;;7.20;99.90;;;;;;4994207;28;20022;-73
2023/05/05 05:30:24;;;;;;;7.38;4.03;;;7.40;99.90;;;;;;4993765;28;20045;-73
2023/05/05 05:32:49;;;;;;;12.13;4.88;;;7.50;99.90;;;;;;4994104;28;20030;-73
2023/05/05 05:35:15;;;;;;;8.52;4.03;;;7.70;99.90;;;;;;4976746;28;20023;-74
2023/05/05 05:37:41;;;;;;;12.85;4.90;;;7.70;99.90;;;;;;4994004;28;20069;-74
2023/05/05 05:40:07;;;;;;;6.25;3.95;;;7.80;99.90;;;;;;4976715;28;20121;-74
2023/05/05 05:42:33;;;;;;;11.48;4.78;;;8.00;99.90;;;;;;4994025;28;20030;-74
2023/05/05 05:44:58;;;;;;;9.73;4.63;;;8.10;99.90;;;;;;4976248;28;20455;-73
2023/05/05 05:47:24;;;;;;;7.03;4.53;;;8.30;99.90;;;;;;4993787;28;20030;-74
2023/05/05 05:49:50;;;;;;;6.50;4.50;;;8.50;99.90;;;;;;4992587;28;20479;-74
2023/05/05 05:52:16;;;;;;;8.20;4.63;;;8.70;99.90;;;;;;4994318;28;20037;-74
2023/05/05 05:54:42;;;;;;;4.50;3.60;;;9.00;99.90;;;;;;4993965;28;20101;-74
2023/05/05 05:57:07;;;;;;;8.02;4.38;;;9.50;99.90;;;;;;4975994;28;20041;-74
2023/05/05 05:59:33;;;;;;;10.63;3.75;;;10.00;99.90;;;;;;4977255;28;20026;-74
2023/05/05 06:01:59;;;;;;;10.57;3.85;;;10.50;99.90;;;;;;4996980;28;20109;-74
2023/05/05 06:04:24;;;;;;;6.78;3.17;;;11.10;99.90;;;;;;4997065;28;20118;-74
2023/05/05 06:06:50;;;;;;;8.23;3.38;;;11.70;99.90;;;;;;4997657;28;20451;-74
2023/05/05 06:09:16;;;;;;;11.38;4.00;;;12.20;99.90;;;;;;4996970;28;20096;-74
2023/05/05 06:11:41;;;;;;;8.25;3.75;;;12.70;99.90;;;;;;4997132;28;20030;-74
2023/05/05 06:14:07;;;;;;;7.53;3.33;;;13.20;99.90;;;;;;4997564;28;20136;-74
2023/05/05 06:16:33;;;;;;;3.90;3.40;;;13.70;99.90;;;;;;4997246;28;20058;-74
2023/05/05 06:18:58;;;;;;;9.82;3.42;;;14.10;99.90;;;;;;4997100;28;20034;-74
2023/05/05 06:21:24;;;;;;;4.45;3.13;;;14.60;99.90;;;;;;4995484;28;20030;-74
2023/05/05 06:23:50;;;;;;;8.55;3.88;;;15.00;99.80;;;;;;4995489;28;20113;-74
2023/05/05 06:26:15;;;;;;;6.25;3.42;;;15.20;98.10;;;;;;4979016;28;20093;-74
2023/05/05 06:28:41;;;;;;;4.72;3.20;;;15.40;97.10;;;;;;4979061;28;20121;-74
2023/05/05 06:31:07;;;;;;;7.93;4.10;;;15.80;95.10;;;;;;4996688;28;20037;-74
2023/05/05 06:33:32;;;;;;;7.60;4.05;;;15.90;94.40;;;;;;4979142;28;20033;-74
2023/05/05 06:35:58;;;;;;;6.18;3.85;;;16.00;92.80;;;;;;4995160;28;20061;-74
2023/05/05 06:38:24;;;;;;;7.78;3.60;;;16.00;92.80;;;;;;4979059;28;20120;-74
2023/05/05 06:40:49;;;;;;;11.98;4.63;;;16.00;92.20;;;;;;4995237;28;20033;-74
2023/05/05 06:43:15;;;;;;;9.98;4.60;;;16.00;92.10;;;;;;4979159;28;20026;-74
2023/05/05 06:45:42;;;;;;;6.65;4.40;;;16.10;91.20;;;;;;4996371;28;20461;-74
2023/05/05 06:48:07;;;;;;;12.48;4.57;;;16.40;90.50;;;;;;4996282;28;20034;-74
2023/05/05 06:50:33;;;;;;;7.38;5.22;;;16.80;90.80;;;;;;4978609;28;20068;-74
2023/05/05 06:52:59;;;;;;;5.93;4.90;;;17.00;88.60;;;;;;4996449;28;20054;-74
2023/05/05 06:55:25;;;;;;;6.35;4.90;;;17.40;86.30;;;;;;4996068;28;20430;-74
2023/05/05 06:57:51;;;;;;;9.35;4.75;;;17.70;83.70;;;;;;4996222;28;20058;-74
2023/05/05 07:00:17;;;;;;;10.27;5.30;;;18.10;82.20;;;;;;4978793;28;20034;-74
2023/05/05 07:02:43;;;;;;;9.98;5.53;;;18.40;80.10;;;;;;4994809;28;20586;-74
2023/05/05 07:05:09;;;;;;;10.32;5.53;;;18.50;78.60;;;;;;4978641;28;20047;-74
2023/05/05 07:07:35;;;;;;;7.30;5.72;;;18.70;76.80;;;;;;4978623;28;20053;-74
2023/05/05 07:10:01;;;;;;;7.15;5.20;;;18.80;75.10;;;;;;4978106;28;20057;-74
2023/05/05 07:12:29;;;;;;;11.20;6.15;;;18.60;74.30;;;;;;4994916;28;20069;-74
2023/05/05 07:14:55;;;;;;;8.38;5.30;;;18.90;75.40;;;;;;4978249;28;20023;-73
2023/05/05 07:17:21;;;;;;;9.63;5.53;;;19.30;71.90;;;;;;4996180;28;20042;-74
2023/05/05 07:19:47;;;;;;;9.40;5.53;;;19.70;71.30;;;;;;4978454;28;20037;-74
2023/05/05 07:22:12;;;;;;;9.20;5.93;;;19.90;70.10;;;;;;4994557;28;20034;-73
2023/05/05 07:24:38;;;;;;;8.13;5.57;;;19.90;67.70;;;;;;4995993;28;20089;-74
2023/05/05 07:27:05;;;;;;;11.52;5.80;;;20.00;68.60;;;;;;4978291;28;20065;-73
2023/05/05 07:29:30;;;;;;;12.65;5.88;;;20.10;67.20;;;;;;4995366;28;20030;-73
2023/05/05 07:31:56;;;;;;;9.85;5.88;;;20.10;66.40;;;;;;4994271;28;20033;-74
2023/05/05 07:34:22;;;;;;;8.82;5.22;;;20.10;65.90;;;;;;4994274;28;20026;-73
2023/05/05 07:36:47;;;;;;;15.73;5.80;;;20.30;65.90;;;;;;4978031;28;20488;-74
2023/05/05 07:39:14;;;;;;;9.27;6.13;;;20.50;65.00;;;;;;4995174;28;20492;-73
2023/05/05 07:41:41;;;;;;;10.63;6.15;;;20.40;64.40;;;;;;4994079;28;20058;-73
2023/05/05 07:44:07;;;;;;;11.35;6.28;;;20.60;63.10;;;;;;4995210;28;20077;-73
2023/05/05 07:46:32;;;;;;;9.82;5.90;;;20.30;63.00;;;;;;4977552;28;20050;-73
2023/05/05 07:48:58;;;;;;;7.60;5.93;;;20.50;64.10;;;;;;4993992;28;20038;-73
2023/05/05 07:51:24;;;;;;;11.73;6.57;;;20.40;62.80;;;;;;4993867;28;20517;-73
2023/05/05 07:53:49;;;;;;;11.43;5.70;;;20.10;62.30;;;;;;4994868;28;20061;-73
2023/05/05 07:56:15;;;;;;;9.95;6.25;;;20.50;62.90;;;;;;4977578;28;20033;-73
2023/05/05 07:58:41;;;;;;;11.13;6.10;;;20.70;61.30;;;;;;4995024;28;20035;-73
2023/05/05 08:01:09;;;;;;;8.27;6.18;;;20.80;60.40;;;;;;4995066;28;20110;-73
2023/05/05 08:03:35;;;;;;;15.73;6.15;;;20.80;59.70;;;;;;4977281;28;20077;-73
2023/05/05 08:06:07;;;;;;;10.32;6.07;;;20.50;60.70;;;;;;4977456;28;20030;-73
2023/05/05 08:08:33;;;;;;;9.20;5.50;;;20.50;60.60;;;;;;4977404;28;20022;-73
2023/05/05 08:10:59;;;;;;;13.00;5.65;;;21.00;59.90;;;;;;4993557;28;20030;-73
2023/05/05 08:13:25;;;;;;;9.48;5.95;;;21.50;59.90;;;;;;4993841;28;20113;-73
2023/05/05 08:15:52;;;;;;;8.88;6.72;;;22.00;58.40;;;;;;4994586;28;20122;-73
2023/05/05 08:18:18;;;;;;;11.35;6.35;;;22.20;56.70;;;;;;4994708;28;20030;-73
2023/05/05 08:20:44;;;;;;;11.65;6.35;;;22.20;56.90;;;;;;4977454;28;20022;-73
2023/05/05 08:23:09;;;;;;;9.85;6.65;;;22.50;55.60;;;;;;4976904;28;20049;-73
2023/05/05 08:25:35;;;;;;;12.55;7.20;;;22.50;55.10;;;;;;4994364;28;20467;-73
2023/05/05 08:28:01;;;;;;;10.05;6.85;;;22.70;54.70;;;;;;4994602;28;20026;-73
2023/05/05 08:30:26;;;;;;;11.95;6.57;;;22.80;54.30;;;;;;4994352;28;20038;-73
2023/05/05 08:32:52;;;;;;;14.05;7.32;;;22.40;55.50;;;;;;4976977;28;20108;-73
2023/05/05 08:35:18;;;;;;;10.80;7.10;;;22.40;54.60;;;;;;4993919;28;20050;-73
2023/05/05 08:37:43;;;;;;;15.20;6.97;;;22.60;54.60;;;;;;4977065;28;20022;-73
2023/05/05 08:40:13;;;;;;;9.00;7.15;;;23.10;54.00;;;;;;4993186;28;20030;-73
2023/05/05 08:42:40;;;;;;;12.82;8.75;;;23.20;52.80;;;;;;4994673;28;20023;-73
2023/05/05 08:45:09;;;;;;;10.95;7.40;;;23.10;52.70;;;;;;4976789;28;20030;-73
2023/05/05 08:47:36;;;;;;;8.88;7.35;;;23.40;52.90;;;;;;4993329;28;20037;-73
2023/05/05 08:50:04;;;;;;;9.93;7.05;;;23.60;51.60;;;;;;4976684;28;20478;-73
2023/05/05 08:52:37;;;;;;;13.38;7.72;;;23.50;51.40;;;;;;4994328;28;20366;-73
2023/05/05 08:55:16;;;;;;;11.07;7.45;;;23.30;51.70;;;;;;4993504;28;20544;-72
2023/05/05 08:57:50;;;;;;;11.77;7.60;;;23.40;51.90;;;;;;4976794;28;20459;-73
2023/05/05 09:00:18;;;;;;;14.35;7.65;;;23.50;52.10;;;;;;4976768;28;20301;-73
2023/05/05 09:02:45;;;;;;;16.13;8.13;;;23.60;51.40;;;;;;4994280;28;20026;-73
2023/05/05 09:05:10;;;;;;;14.38;7.90;;;23.80;51.50;;;;;;4977140;28;20028;-73
2023/05/05 09:07:37;;;;;;;10.20;7.30;;;24.30;51.30;;;;;;4976799;28;20113;-72
2023/05/05 09:10:04;;;;;;;12.70;7.55;;;25.10;49.50;;;;;;4993161;28;20081;-73
2023/05/05 09:12:30;;;;;;;14.70;7.55;;;25.70;48.30;;;;;;4976653;28;20030;-73
2023/05/05 09:14:56;;;;;;;11.70;7.50;;;25.60;47.20;;;;;;4994141;28;20474;-72
2023/05/05 09:17:25;;;;;;;12.25;7.97;;;25.40;47.80;;;;;;4994142;28;20033;-73
2023/05/05 09:20:01;;;;;;;;;;;25.40;47.60;;;;;;4994515;28;20038;-73
2023/05/05 09:22:32;;;;;;;8.77;6.82;;;25.60;47.80;;;;;;4992785;28;19957;-73
2023/05/05 09:24:58;;;;;;;15.63;7.13;;;26.10;46.90;;;;;;4976674;28;20035;-72
2023/05/05 09:27:23;;;;;;;10.43;7.80;;;26.20;46.80;;;;;;4993964;28;20045;-72
2023/05/05 09:29:49;;;;;;;16.20;7.15;;;26.00;45.80;;;;;;4993872;28;20034;-72
2023/05/05 09:32:17;;;;;;;8.02;6.60;;;25.80;46.10;;;;;;4994114;28;20100;-72
2023/05/05 09:34:55;;;;;;;13.00;6.80;;;26.10;46.50;;;;;;4994981;28;20034;-72
2023/05/05 09:37:30;;;;;;;9.35;7.25;;;26.30;45.30;;;;;;4997711;28;20030;-72
2023/05/05 09:39:59;;;;;;;9.63;7.20;;;26.50;44.80;;;;;;4997922;28;20069;-72
2023/05/05 09:42:26;;;;;;;12.63;7.15;;;26.90;44.70;;;;;;4980083;28;20026;-72
2023/05/05 09:44:53;;;;;;;10.77;7.93;;;26.70;43.60;;;;;;4997380;28;20032;-72
2023/05/05 09:47:19;;;;;;;10.73;8.02;;;26.00;44.10;;;;;;4980005;28;20037;-72
2023/05/05 09:49:45;;;;;;;14.65;7.00;;;25.90;45.20;;;;;;4997373;28;20037;-73
2023/05/05 09:52:15;;;;;;;11.98;6.93;;;26.30;45.90;;;;;;4996325;28;20034;-72
2023/05/05 09:54:42;;;;;;;9.70;5.70;;;26.60;44.80;;;;;;4979851;28;20032;-72
2023/05/05 09:57:08;;;;;;;10.07;6.60;;;27.00;43.80;;;;;;4979569;28;20034;-72
2023/05/05 09:59:33;;;;;;;9.82;5.50;;;27.00;43.40;;;;;;4979828;28;20034;-72
2023/05/05 10:02:11;;;;;;;10.43;6.32;;;27.60;43.50;;;;;;4995974;28;20029;-72
2023/05/05 10:04:37;;;;;;;9.25;6.20;;;27.40;42.80;;;;;;4997242;28;20060;-72
2023/05/05 10:07:03;;;;;;;11.27;6.43;;;26.90;41.60;;;;;;4996916;28;20062;-72
2023/05/05 10:09:30;;;;;;;12.60;6.78;;;26.70;43.50;;;;;;4995736;28;20121;-72
2023/05/05 10:11:58;;;;;;;7.25;5.53;;;27.20;42.70;;;;;;4997086;28;20122;-72
2023/05/05 10:14:25;;;;;;;11.82;6.45;;;27.50;42.60;;;;;;4979792;28;20073;-72
2023/05/05 10:16:53;;;;;;;9.10;6.70;;;27.20;42.30;;;;;;4997080;28;20414;-72
2023/05/05 10:19:23;;;;;;;9.77;6.68;;;27.10;43.10;;;;;;4995633;28;20065;-72
2023/05/05 10:21:57;;;;;;;9.73;5.90;;;27.40;43.30;;;;;;4996580;28;20470;-72
2023/05/05 10:24:26;;;;;;;7.45;6.13;;;27.50;42.80;;;;;;4995801;28;20459;-72
2023/05/05 10:26:52;;;;;;;6.63;6.03;;;27.70;42.30;;;;;;4979302;28;20026;-72
2023/05/05 10:29:35;;;;;;;6.78;5.07;;;27.90;42.80;;;;;;4979149;28;20041;-72
2023/05/05 10:32:15;;;;;;;9.73;5.95;;;27.00;45.30;;;;;;4979126;28;20057;-72
2023/05/05 10:34:51;;;;;;;9.05;5.32;;;27.10;42.80;;;;;;4979514;28;20026;-72
2023/05/05 10:37:18;;;;;;;8.50;5.68;;;27.10;42.20;;;;;;4995960;28;20426;-73
2023/05/05 10:39:45;;;;;;;10.55;6.38;;;27.00;43.30;;;;;;4996811;28;20066;-73
2023/05/05 10:42:12;;;;;;;9.20;5.88;;;27.40;42.80;;;;;;4996570;28;20505;-72
2023/05/05 10:44:38;;;;;;;7.60;5.18;;;27.30;42.90;;;;;;4996605;28;20080;-73
2023/05/05 10:47:05;;;;;;;9.73;5.68;;;27.50;41.80;;;;;;4995813;28;20042;-74
2023/05/05 10:49:36;;;;;;;8.02;4.40;;;27.70;41.60;;;;;;4994965;28;20125;-73
2023/05/05 10:52:33;;;;;;;11.07;4.82;;;27.60;41.70;;;;;;5011617;28;20443;-72
2023/05/05 10:55:17;;;;;;;7.57;4.82;;;28.20;41.20;;;;;;4998527;28;20121;-72
2023/05/05 10:57:50;;;;;;;7.65;6.00;;;28.60;40.60;;;;;;5015250;28;20065;-74
2023/05/05 11:00:37;;;;;;;9.35;6.53;;;28.90;40.40;;;;;;5015570;28;20025;-73
2023/05/05 11:03:30;;;;;;;8.18;7.30;;;27.50;41.60;;;;;;4997898;28;20025;-72
2023/05/05 11:08:34;;;;;;;11.10;7.95;;;27.40;43.30;;;;;;5015471;28;20148;-73
2023/05/05 11:11:00;;;;;;;11.35;7.70;;;26.80;43.30;;;;;;5015794;28;20030;-73
2023/05/05 11:13:27;;;;;;;10.10;8.02;;;26.90;44.00;;;;;;5015520;28;20041;-72
2023/05/05 11:15:53;;;;;;;11.48;7.57;;;26.80;44.10;;;;;;5015444;28;20101;-71
2023/05/05 11:18:34;;;;;;;12.15;8.25;;;27.50;43.10;;;;;;5015204;28;20049;-71
2023/05/05 11:21:00;;;;;;;13.07;7.35;;;27.70;42.40;;;;;;4997721;28;20049;-71
2023/05/05 11:23:27;;;;;;;12.30;8.35;;;27.10;42.90;;;;;;5015538;28;20470;-71
2023/05/05 11:25:53;;;;;;;12.48;7.43;;;27.00;44.20;;;;;;4997517;28;20330;-70
2023/05/05 11:28:23;;;;;;;9.13;6.20;;;27.70;44.20;;;;;;5015419;28;20033;-71
2023/05/05 11:30:55;;;;;;;11.10;6.32;;;28.70;42.10;;;;;;5014785;28;20371;-73
2023/05/05 11:33:28;;;;;;;8.75;7.43;;;28.90;42.80;;;;;;5015189;28;20053;-72
2023/05/05 11:36:08;;;;;;;7.60;6.45;;;29.20;41.00;;;;;;4997429;28;20470;-72
2023/05/05 11:38:52;;;;;;;10.32;6.03;;;29.10;40.90;;;;;;5015728;28;20454;-73
2023/05/05 11:41:30;;;;;;;6.82;6.13;;;29.70;40.60;;;;;;5015020;28;20029;-73
2023/05/05 11:44:10;;;;;;;7.47;5.63;;;30.20;39.20;;;;;;5014886;28;20022;-73
2023/05/05 11:46:38;;;;;;;9.70;6.22;;;30.70;38.10;;;;;;5014837;28;20494;-72
2023/05/05 11:49:03;;;;;;;6.60;5.38;;;30.30;39.00;;;;;;4997004;28;20493;-72
2023/05/05 11:51:30;;;;;;;7.95;5.78;;;30.90;38.90;;;;;;4996524;28;20029;-72
2023/05/05 11:53:55;;;;;;;5.85;4.85;;;31.30;38.50;;;;;;5014598;28;20370;-73
2023/05/05 11:56:22;;;;;;;8.13;4.90;;;31.20;37.80;;;;;;5014919;28;20022;-72
2023/05/05 11:58:48;;;;;;;10.73;5.80;;;30.80;37.50;;;;;;5013976;28;20030;-72
2023/05/05 12:01:14;;;;;;;7.05;4.65;;;29.80;37.00;;;;;;5014402;28;20025;-71
2023/05/05 12:03:40;;;;;;;4.53;3.72;;;29.60;37.60;;;;;;5014410;28;20026;-72
2023/05/05 12:06:07;;;;;;;7.10;4.10;;;29.40;37.30;;;;;;4996841;28;20032;-67
2023/05/05 12:08:40;;;;;;;5.20;3.90;;;29.20;40.10;;;;;;5014426;28;20026;-67
2023/05/05 12:11:10;;;;;;;4.88;3.17;;;29.10;38.40;;;;;;5014747;28;20116;-67
2023/05/05 12:13:36;;;;;;;6.25;3.30;;;28.80;39.20;;;;;;5014472;28;20022;-68
2023/05/05 12:16:11;;;;;;;7.30;3.10;;;29.20;40.60;;;;;;5014133;28;20037;-66
2023/05/05 12:18:38;;;;;;;5.43;2.95;;;29.80;37.70;;;;;;5014285;28;20534;-74
2023/05/05 12:21:17;;;;;;;4.75;3.10;;;29.60;38.50;;;;;;4997383;28;20026;-74
2023/05/05 12:23:43;;;;;;;5.97;3.65;;;30.30;35.70;;;;;;5014370;28;20064;-72
2023/05/05 12:26:30;;;;;;;5.88;3.47;;;30.20;35.50;;;;;;4997089;28;20054;-74
2023/05/05 12:28:57;;;;;;;5.13;3.60;;;30.20;37.00;;;;;;5014344;28;20037;-75
2023/05/05 12:31:36;;;;;;;6.85;3.50;;;30.00;36.90;;;;;;4996301;28;20125;-75
2023/05/05 12:34:02;;;;;;;6.03;3.25;;;30.50;37.10;;;;;;5014168;28;20025;-75
2023/05/05 12:36:29;;;;;;;6.20;3.28;;;31.00;35.10;;;;;;5014487;28;20053;-74
2023/05/05 12:38:55;;;;;;;4.75;3.60;;;31.60;34.70;;;;;;5014046;28;20462;-75
2023/05/05 12:41:21;;;;;;;6.53;3.35;;;31.80;34.60;;;;;;4996332;28;20117;-74
2023/05/05 12:43:53;;;;;;;8.98;3.38;;;31.40;34.30;;;;;;5013949;28;20072;-73
2023/05/05 12:46:18;;;;;;;6.50;3.53;;;30.00;35.40;;;;;;4996208;28;20054;-70
2023/05/05 12:48:44;;;;;;;5.40;2.75;;;30.00;36.60;;;;;;4996292;28;20026;-70
2023/05/05 12:51:22;;;;;;;8.65;3.00;;;30.90;38.00;;;;;;5013933;28;20037;-72
2023/05/05 12:54:00;;;;;;;6.03;3.17;;;31.10;36.80;;;;;;4996333;28;20030;-70
2023/05/05 12:56:39;;;;;;;4.13;3.75;;;30.60;37.30;;;;;;5013651;28;20041;-70